This is the latest recevied weather packets stored in our database for station/object PE1BMM-13. If no packets are shown the sender has not sent any weather packets the latest 10 day(s).
| Time | Temp. | Humidity | Pressure | Rain* | Wind** | Luminosity | Snow |
|---|---|---|---|---|---|---|---|
| 1777560057 | 18.89° C | 33% | 1027 hPa | 0 mm | - | - | - |
| 1777559181 | 18.89° C | 32% | 1026.9 hPa | 0 mm | - | - | - |
| 1777556493 | 18.33° C | 31% | 1027.4 hPa | 0 mm | - | - | - |
| 1777555889 | 18.33° C | 34% | 1027.6 hPa | 0 mm | - | - | - |
| 1777543890 | 15° C | 40% | 1029.1 hPa | 0 mm | - | - | - |
| 1777542089 | 13.89° C | 42% | 1029.3 hPa | 0 mm | - | - | - |
| 1777539649 | 13.33° C | 49% | 1029.9 hPa | 0 mm | - | - | - |
| 1777535484 | 12.78° C | 51% | 1030.2 hPa | 0 mm | - | - | - |
| 1777534885 | 12.78° C | 54% | 1030.1 hPa | 0 mm | - | - | - |
| 1777533684 | 12.22° C | 55% | 1030.2 hPa | 0 mm | - | - | - |
| 1777531879 | 11.67° C | 59% | 1030.3 hPa | 0 mm | - | - | - |
| 1777524676 | 8.33° C | 76% | 1029.6 hPa | 0 mm | - | - | - |
| 1777521641 | 8.89° C | 74% | 1029.4 hPa | 0 mm | - | - | - |
| 1777516859 | 9.44° C | 74% | 1029.4 hPa | 0 mm | - | - | - |
| 1777515659 | 8.89° C | 76% | 1029.4 hPa | 0 mm | - | - | - |
| 1777515060 | 9.44° C | 76% | 1029.4 hPa | 0 mm | - | - | - |
| 1777513258 | 9.44° C | 76% | 1029.5 hPa | 0 mm | - | - | - |
| 1777512657 | 9.44° C | 76% | 1029.5 hPa | 0 mm | - | - | - |
| 1777504854 | 10° C | 76% | 1029.1 hPa | 0 mm | - | - | - |
| 1777504253 | 10° C | 76% | 1029 hPa | 0 mm | - | - | - |
| 1777497653 | 10.56° C | 80% | 1028.5 hPa | 0 mm | - | - | - |
| 1777494052 | 12.22° C | 73% | 1028.3 hPa | 0 mm | - | - | - |
| 1777492251 | 12.78° C | 63% | 1028.1 hPa | 0 mm | - | - | - |
| 1777490428 | 14.44° C | 52% | 1027.8 hPa | 0 mm | - | - | - |
| 1777486224 | 16.11° C | 49% | 1027 hPa | 0 mm | - | - | - |
* Rain latest hour (hover to see other rain measurements)
** Current wind speed in m/s (hover to see current wind gust speed)